馬祖北竿航空站 - ATIS

METAR RCMT 021100Z 03005KT 350V070 CAVOK 14/02 Q1023 NOSIG RMK A3021(L)=

站台狀態:Online
最後更新:2021-12-03 01:30:01